Time;durP1;ratioP1;P1;durP2;ratioP2;P2;SDS_P1;SDS_P2;PMS_P1;PMS_P2;Temp;Humidity;BMP_temperature;BMP_pressure;BME280_temperature;BME280_humidity;BME280_pressure;Samples;Min_cycle;Max_cycle;Signal;HPM_P1;HPM_P2
2022/08/07 05:10:51;;;;;;;6.07;5.47;;;15.10;99.90;;;;;;5077853;28;20608;-81
2022/08/07 05:13:38;;;;;;;10.67;6.00;;;15.20;99.90;;;;;;5077638;28;20191;-81
2022/08/07 05:16:07;;;;;;;7.10;5.33;;;15.20;99.90;;;;;;5075649;28;20627;-81
2022/08/07 05:18:38;;;;;;;7.30;5.20;;;15.20;99.90;;;;;;5077338;28;20220;-81
2022/08/07 05:21:08;;;;;;;6.57;4.43;;;15.20;99.90;;;;;;5076551;28;20173;-82
2022/08/07 05:23:52;;;;;;;5.17;4.50;;;15.10;99.90;;;;;;5076906;28;20180;-82
2022/08/07 05:26:21;;;;;;;5.00;4.50;;;15.00;99.90;;;;;;5078195;28;20689;-81
2022/08/07 05:28:50;;;;;;;5.10;4.50;;;15.00;99.90;;;;;;5076500;28;20748;-81
2022/08/07 05:31:18;;;;;;;4.30;3.87;;;15.00;99.90;;;;;;5076790;28;20173;-81
2022/08/07 05:33:48;;;;;;;4.23;3.70;;;15.00;99.90;;;;;;5077360;28;20258;-82
2022/08/07 05:36:16;;;;;;;5.30;3.67;;;15.10;99.90;;;;;;5078467;28;20173;-81
2022/08/07 05:38:42;;;;;;;6.93;5.00;;;15.10;99.90;;;;;;5080207;28;20653;-82
2022/08/07 05:41:09;;;;;;;8.40;3.50;;;15.10;99.90;;;;;;5083060;28;20183;-81
2022/08/07 05:43:36;;;;;;;4.20;3.43;;;15.20;99.90;;;;;;5077876;28;20173;-81
2022/08/07 05:46:02;;;;;;;4.33;3.17;;;15.20;99.90;;;;;;5078303;28;20219;-82
2022/08/07 05:48:28;;;;;;;5.00;3.40;;;15.20;99.90;;;;;;5075670;28;20216;-81
2022/08/07 05:50:56;;;;;;;5.07;2.80;;;15.20;99.90;;;;;;5077972;28;20176;-81
2022/08/07 05:53:22;;;;;;;3.77;3.10;;;15.30;99.90;;;;;;5076821;28;20184;-82
2022/08/07 05:55:50;;;;;;;6.07;2.83;;;15.30;99.90;;;;;;5078368;28;20177;-82
2022/08/07 05:58:17;;;;;;;3.27;2.97;;;15.40;99.90;;;;;;5079308;28;20244;-82
2022/08/07 06:00:45;;;;;;;3.80;2.93;;;15.40;99.90;;;;;;5077721;28;20177;-82
2022/08/07 06:03:13;;;;;;;7.87;3.27;;;15.50;99.90;;;;;;5078227;28;20543;-82
2022/08/07 06:05:39;;;;;;;3.57;2.77;;;15.50;99.90;;;;;;5079494;28;20173;-82
2022/08/07 06:08:05;;;;;;;6.67;3.63;;;15.50;99.90;;;;;;5077008;28;20251;-82
2022/08/07 06:10:32;;;;;;;4.77;3.20;;;15.60;99.90;;;;;;5079323;28;20169;-82
2022/08/07 06:12:59;;;;;;;5.97;3.13;;;15.60;99.90;;;;;;5076501;28;20261;-81
2022/08/07 06:15:26;;;;;;;3.40;3.10;;;15.70;99.90;;;;;;5073794;28;20177;-81
2022/08/07 06:17:53;;;;;;;4.13;3.13;;;15.70;99.90;;;;;;5075886;28;20193;-82
2022/08/07 06:20:19;;;;;;;3.23;2.70;;;15.80;99.90;;;;;;5071346;28;20202;-81
2022/08/07 06:22:47;;;;;;;3.33;3.00;;;15.80;99.90;;;;;;5061308;28;20234;-81
2022/08/07 06:25:12;;;;;;;3.27;2.97;;;15.90;99.90;;;;;;5061303;28;20209;-81
2022/08/07 06:27:38;;;;;;;3.30;3.03;;;15.80;99.90;;;;;;5061298;28;20208;-82
2022/08/07 06:30:04;;;;;;;4.53;3.53;;;16.00;99.90;;;;;;5062690;28;20553;-81
2022/08/07 06:32:30;;;;;;;5.20;3.30;;;16.00;99.90;;;;;;5063207;28;20170;-80
2022/08/07 06:34:58;;;;;;;6.37;3.30;;;16.10;99.90;;;;;;5063198;28;20201;-81
2022/08/07 06:37:23;;;;;;;4.03;3.60;;;16.30;99.90;;;;;;5061967;28;20198;-81
2022/08/07 06:39:49;;;;;;;4.03;3.40;;;16.30;99.90;;;;;;5061444;28;20181;-81
2022/08/07 06:42:19;;;;;;;5.03;3.30;;;16.40;99.90;;;;;;5062575;28;20197;-81
2022/08/07 06:44:48;;;;;;;5.50;3.60;;;16.40;99.90;;;;;;5064584;28;20272;-82
2022/08/07 06:47:14;;;;;;;5.40;3.70;;;16.60;99.90;;;;;;5064916;28;20177;-82
2022/08/07 06:49:41;;;;;;;4.00;3.50;;;16.60;99.90;;;;;;5063339;28;20232;-83
2022/08/07 06:52:10;;;;;;;5.90;3.37;;;16.60;99.90;;;;;;5073865;28;20188;-82
2022/08/07 06:54:38;;;;;;;7.87;3.70;;;16.70;99.90;;;;;;5066591;28;20178;-81
2022/08/07 06:57:05;;;;;;;3.47;3.13;;;16.80;99.90;;;;;;5060710;28;20269;-81
2022/08/07 06:59:36;;;;;;;4.67;3.30;;;16.80;99.90;;;;;;5062419;28;20181;-83
2022/08/07 07:02:04;;;;;;;4.00;3.03;;;16.80;99.90;;;;;;5062947;28;20239;-82
2022/08/07 07:04:30;;;;;;;3.97;3.57;;;16.80;99.90;;;;;;5062240;28;20519;-82
2022/08/07 07:06:57;;;;;;;6.03;3.60;;;16.80;99.90;;;;;;5059362;28;20185;-82
2022/08/07 07:09:29;;;;;;;4.00;3.60;;;16.90;99.90;;;;;;5064408;28;20217;-82
2022/08/07 07:12:07;;;;;;;5.20;3.77;;;17.00;99.90;;;;;;5063834;28;20220;-82
2022/08/07 07:15:04;;;;;;;4.57;3.80;;;17.10;99.90;;;;;;5066208;28;20252;-82
2022/08/07 07:17:46;;;;;;;3.93;3.53;;;17.40;99.90;;;;;;5061328;28;20667;-82
2022/08/07 07:20:18;;;;;;;4.57;3.50;;;17.50;99.90;;;;;;5060155;28;20181;-82
2022/08/07 07:22:45;;;;;;;7.13;4.07;;;17.60;99.90;;;;;;5059926;28;20620;-82
2022/08/07 07:25:12;;;;;;;4.27;3.87;;;17.70;99.90;;;;;;5060296;28;20214;-82
2022/08/07 07:27:53;;;;;;;4.00;3.60;;;17.70;99.90;;;;;;5060199;28;20251;-81
2022/08/07 07:30:29;;;;;;;4.27;3.47;;;17.70;99.90;;;;;;5060213;28;20288;-82
2022/08/07 07:32:58;;;;;;;4.53;3.57;;;17.80;99.90;;;;;;5059054;28;20212;-82
2022/08/07 07:35:25;;;;;;;5.23;3.63;;;18.00;99.90;;;;;;5061884;28;20178;-82
2022/08/07 07:37:53;;;;;;;4.20;3.80;;;18.00;99.90;;;;;;5060482;28;20255;-82
2022/08/07 07:40:20;;;;;;;4.30;3.90;;;18.10;99.90;;;;;;5060356;28;20229;-81
2022/08/07 07:42:50;;;;;;;4.07;3.77;;;18.20;99.90;;;;;;5061249;28;20177;-82
2022/08/07 07:45:25;;;;;;;4.40;4.00;;;18.20;99.90;;;;;;5061276;28;20253;-82
2022/08/07 07:47:52;;;;;;;4.00;3.70;;;18.20;99.90;;;;;;5061283;28;20662;-81
2022/08/07 07:50:21;;;;;;;4.30;3.90;;;18.30;99.90;;;;;;5060312;28;20248;-81
2022/08/07 07:52:47;;;;;;;4.40;3.80;;;18.40;99.90;;;;;;5059793;28;20178;-82
2022/08/07 07:55:16;;;;;;;4.63;4.23;;;18.40;99.90;;;;;;5062000;28;20183;-82
2022/08/07 07:57:43;;;;;;;5.10;3.80;;;18.30;99.90;;;;;;5060412;28;20255;-82
2022/08/07 08:00:10;;;;;;;6.77;4.07;;;18.30;99.90;;;;;;5060053;28;20636;-82
2022/08/07 08:02:38;;;;;;;4.30;3.40;;;18.40;99.90;;;;;;5061558;28;20224;-81
2022/08/07 08:05:06;;;;;;;4.07;3.00;;;18.50;99.90;;;;;;5061253;28;20196;-82
2022/08/07 08:07:34;;;;;;;4.10;3.40;;;18.60;99.90;;;;;;5061234;28;20205;-82
2022/08/07 08:10:01;;;;;;;5.13;3.83;;;18.80;99.90;;;;;;5061152;28;20213;-82
2022/08/07 08:12:27;;;;;;;4.63;3.90;;;19.10;99.90;;;;;;5062807;28;20246;-82
2022/08/07 08:14:53;;;;;;;4.57;4.17;;;19.20;99.90;;;;;;5063696;28;20217;-82
2022/08/07 08:17:20;;;;;;;3.90;3.40;;;19.30;99.90;;;;;;5063450;28;20174;-82
2022/08/07 08:19:49;;;;;;;3.67;3.33;;;19.30;99.90;;;;;;5066475;28;20264;-83
2022/08/07 08:27:51;;;;;;;4.40;3.40;;;19.40;99.90;;;;;;5061383;28;20213;-82
2022/08/07 08:30:18;;;;;;;5.17;3.30;;;19.80;99.90;;;;;;5062229;28;20210;-82
2022/08/07 08:32:51;;;;;;;4.03;3.20;;;20.00;99.90;;;;;;5061126;28;20189;-81
2022/08/07 08:35:22;;;;;;;4.00;3.47;;;20.10;99.90;;;;;;5062687;28;20164;-81
2022/08/07 08:37:53;;;;;;;4.03;3.30;;;20.10;99.90;;;;;;5063132;28;20228;-81
2022/08/07 08:40:30;;;;;;;3.77;2.93;;;20.00;99.90;;;;;;5061812;28;20178;-82
2022/08/07 08:43:09;;;;;;;3.93;2.83;;;20.10;99.90;;;;;;5062253;28;20181;-82
2022/08/07 08:45:52;;;;;;;2.60;2.40;;;20.20;99.90;;;;;;5062482;28;20180;-84
2022/08/07 08:48:25;;;;;;;3.70;2.77;;;20.40;99.90;;;;;;5061896;28;20571;-82
2022/08/07 08:50:57;;;;;;;3.00;2.70;;;20.70;99.90;;;;;;5065999;28;20170;-81
2022/08/07 08:53:41;;;;;;;3.57;2.70;;;20.80;99.90;;;;;;5060682;28;20183;-81
2022/08/07 08:56:45;;;;;;;4.60;2.87;;;20.80;99.90;;;;;;5061039;28;20201;-81
2022/08/07 08:59:26;;;;;;;3.40;3.00;;;20.80;99.90;;;;;;5043255;28;20714;-81
2022/08/07 09:02:04;;;;;;;5.30;2.77;;;21.10;99.90;;;;;;5058070;28;20188;-81
2022/08/07 09:04:41;;;;;;;3.10;2.63;;;21.40;99.90;;;;;;5059866;28;20266;-81
2022/08/07 09:07:17;;;;;;;2.60;2.37;;;21.50;99.90;;;;;;5060314;28;20187;-81
2022/08/07 09:09:57;;;;;;;3.03;2.53;;;21.40;99.90;;;;;;5061027;28;20220;-81
2022/08/07 09:12:28;;;;;;;3.03;2.73;;;21.30;99.90;;;;;;5059142;28;20173;-81
2022/08/07 09:15:26;;;;;;;2.80;2.50;;;20.80;99.90;;;;;;5061235;28;20255;-81
2022/08/07 09:18:15;;;;;;;4.00;2.70;;;20.50;99.90;;;;;;5061658;28;20190;-82
2022/08/07 09:21:03;;;;;;;3.10;2.73;;;20.30;99.90;;;;;;5062418;28;20251;-82
2022/08/07 09:23:58;;;;;;;2.90;2.40;;;20.10;99.90;;;;;;5059222;28;20187;-81
2022/08/07 09:26:44;;;;;;;4.13;2.53;;;20.00;99.90;;;;;;5059331;28;20189;-81
2022/08/07 09:29:40;;;;;;;2.77;2.40;;;19.90;99.90;;;;;;5059001;28;20205;-82
2022/08/07 09:32:30;;;;;;;2.97;2.77;;;20.00;99.90;;;;;;5058816;28;20178;-81
2022/08/07 09:35:20;;;;;;;3.30;3.00;;;20.30;99.90;;;;;;5060602;28;20227;-82
2022/08/07 09:38:02;;;;;;;2.73;2.50;;;20.60;99.90;;;;;;5059424;28;20201;-82
2022/08/07 09:40:53;;;;;;;2.87;2.30;;;20.60;99.90;;;;;;5058071;28;20234;-82
2022/08/07 09:43:43;;;;;;;3.27;2.53;;;20.60;99.90;;;;;;5060090;28;20180;-82
2022/08/07 09:46:35;;;;;;;5.17;2.87;;;20.50;99.90;;;;;;5058671;28;20196;-82
2022/08/07 09:49:16;;;;;;;3.17;2.73;;;20.60;99.90;;;;;;5058678;28;20221;-83
2022/08/07 09:52:04;;;;;;;2.80;2.60;;;20.70;99.90;;;;;;5060458;28;20254;-82
2022/08/07 09:54:39;;;;;;;3.50;2.47;;;20.80;99.90;;;;;;5060663;28;20517;-82
2022/08/07 09:57:35;;;;;;;3.00;2.57;;;20.90;99.90;;;;;;5062508;28;20170;-79
2022/08/07 10:00:11;;;;;;;4.13;3.10;;;21.00;99.90;;;;;;5064329;28;20242;-80
2022/08/07 10:02:52;;;;;;;3.30;3.00;;;21.00;99.90;;;;;;5062792;28;20181;-80
2022/08/07 10:05:31;;;;;;;3.20;2.90;;;20.80;99.90;;;;;;5064429;28;20183;-81
2022/08/07 10:08:34;;;;;;;3.53;2.70;;;20.70;99.90;;;;;;5063439;28;20208;-80
2022/08/07 10:11:19;;;;;;;3.03;2.40;;;20.60;99.90;;;;;;5063662;28;20269;-81
2022/08/07 10:14:06;;;;;;;2.57;2.37;;;20.60;99.90;;;;;;5064148;28;20271;-81
2022/08/07 10:16:46;;;;;;;4.03;2.20;;;20.60;99.90;;;;;;5064450;28;20259;-81
2022/08/07 10:19:39;;;;;;;3.10;2.80;;;20.50;99.90;;;;;;5063867;28;20282;-81
2022/08/07 10:22:19;;;;;;;2.53;2.33;;;20.40;99.90;;;;;;5065946;28;20168;-80
2022/08/07 10:25:19;;;;;;;5.40;2.83;;;20.40;99.90;;;;;;5064212;28;20262;-81
2022/08/07 10:28:20;;;;;;;3.10;2.53;;;20.30;99.90;;;;;;5062878;28;20199;-81
2022/08/07 10:31:23;;;;;;;3.27;2.83;;;20.30;99.90;;;;;;5062911;28;20175;-81
2022/08/07 10:34:16;;;;;;;4.60;2.37;;;20.30;99.90;;;;;;5062024;28;20183;-81
2022/08/07 10:37:10;;;;;;;3.57;2.27;;;20.40;99.90;;;;;;5063326;28;20168;-81
2022/08/07 10:39:55;;;;;;;2.50;2.00;;;20.40;99.90;;;;;;5064162;28;20636;-81
2022/08/07 10:42:40;;;;;;;2.33;2.13;;;20.50;99.90;;;;;;5064322;28;20180;-81
2022/08/07 10:45:06;;;;;;;2.90;2.30;;;20.50;99.90;;;;;;5062179;28;20176;-81
2022/08/07 10:48:00;;;;;;;2.60;2.40;;;20.50;99.90;;;;;;5061849;28;20206;-81
2022/08/07 10:50:41;;;;;;;4.23;2.00;;;20.70;99.90;;;;;;5062109;28;20588;-81
2022/08/07 10:53:32;;;;;;;2.77;2.30;;;20.90;99.90;;;;;;5064238;28;20170;-81
2022/08/07 10:56:04;;;;;;;4.00;2.10;;;21.10;99.90;;;;;;5062400;28;20522;-80
2022/08/07 10:58:56;;;;;;;2.43;2.23;;;21.30;99.90;;;;;;5061188;28;20302;-81
2022/08/07 11:01:34;;;;;;;2.50;2.23;;;21.30;99.90;;;;;;5062189;28;20173;-80
2022/08/07 11:04:18;;;;;;;3.27;2.10;;;21.40;99.90;;;;;;5060515;28;20180;-81
2022/08/07 11:07:00;;;;;;;2.50;2.30;;;21.60;99.90;;;;;;5059019;28;20170;-81
2022/08/07 11:09:33;;;;;;;3.00;2.10;;;21.80;99.90;;;;;;5058409;28;20316;-81
2022/08/07 11:12:11;;;;;;;3.67;2.20;;;21.80;99.90;;;;;;5060032;28;20166;-81
2022/08/07 11:14:57;;;;;;;3.37;2.07;;;21.50;99.90;;;;;;5061992;28;20153;-81
2022/08/07 11:17:44;;;;;;;2.20;2.00;;;21.40;99.90;;;;;;5060184;28;20189;-81
2022/08/07 11:20:36;;;;;;;2.37;2.10;;;21.20;99.90;;;;;;5060814;28;20169;-81
2022/08/07 11:23:33;;;;;;;2.33;2.13;;;21.20;99.90;;;;;;5059636;28;20288;-80
2022/08/07 11:26:16;;;;;;;2.70;2.10;;;21.70;99.90;;;;;;5060047;28;20188;-81
2022/08/07 11:28:51;;;;;;;2.20;2.00;;;22.30;99.90;;;;;;5061916;28;20205;-81
2022/08/07 11:31:50;;;;;;;2.53;2.10;;;22.40;99.90;;;;;;5061153;28;20184;-81
2022/08/07 11:34:37;;;;;;;3.03;2.00;;;22.60;99.90;;;;;;5062120;28;20177;-82
2022/08/07 11:37:15;;;;;;;2.20;1.93;;;22.40;99.90;;;;;;5060679;28;20173;-81
2022/08/07 11:40:17;;;;;;;3.77;2.07;;;22.30;99.90;;;;;;5061286;28;20181;-81
2022/08/07 11:43:10;;;;;;;2.47;2.00;;;22.50;99.90;;;;;;5061465;28;20179;-81
2022/08/07 11:46:02;;;;;;;3.90;2.03;;;22.60;99.90;;;;;;5064101;28;20635;-81
2022/08/07 11:48:56;;;;;;;2.53;1.70;;;23.00;99.90;;;;;;5062148;28;20197;-81
2022/08/07 11:51:39;;;;;;;2.90;2.03;;;23.50;99.90;;;;;;5061435;28;20263;-81
2022/08/07 11:54:25;;;;;;;3.87;1.90;;;23.80;99.90;;;;;;5061445;28;20193;-81
2022/08/07 11:57:19;;;;;;;2.23;2.03;;;24.00;99.90;;;;;;5061702;28;20209;-81
2022/08/07 12:00:11;;;;;;;2.47;1.90;;;23.80;99.90;;;;;;5062815;28;20169;-80
2022/08/07 12:02:50;;;;;;;2.37;1.90;;;24.00;99.90;;;;;;5060683;28;20553;-81
2022/08/07 12:05:30;;;;;;;3.67;1.73;;;24.00;99.90;;;;;;5060755;28;20241;-80
2022/08/07 12:08:06;;;;;;;4.00;1.93;;;23.90;99.90;;;;;;5059852;28;20197;-81
2022/08/07 12:11:02;;;;;;;2.10;2.00;;;23.50;99.90;;;;;;5059428;28;20664;-81
2022/08/07 12:14:00;;;;;;;3.67;2.00;;;23.00;99.90;;;;;;5051253;28;20185;-81
2022/08/07 12:16:34;;;;;;;2.00;1.80;;;22.70;99.90;;;;;;5053795;28;20189;-80
2022/08/07 12:19:16;;;;;;;1.80;1.70;;;22.60;99.90;;;;;;5059051;28;20197;-81
2022/08/07 12:22:05;;;;;;;2.10;1.60;;;23.00;99.90;;;;;;5061142;28;20257;-82
2022/08/07 12:28:04;;;;;;;1.90;1.80;;;23.00;99.90;;;;;;5061575;28;20200;-82
2022/08/07 12:30:37;;;;;;;1.97;1.77;;;23.00;99.90;;;;;;5063080;28;20270;-82
2022/08/07 12:33:11;;;;;;;2.13;2.00;;;23.00;99.90;;;;;;5063898;28;20651;-82
2022/08/07 12:35:38;;;;;;;3.83;2.13;;;23.20;99.90;;;;;;5069300;28;20147;-82
2022/08/07 12:38:07;;;;;;;2.30;2.00;;;23.00;99.90;;;;;;5064202;28;20192;-80
2022/08/07 12:40:35;;;;;;;2.03;1.83;;;22.90;99.90;;;;;;5061772;28;20173;-81
2022/08/07 12:43:04;;;;;;;2.50;2.03;;;22.70;99.90;;;;;;5061306;28;20174;-82
2022/08/07 12:46:02;;;;;;;2.00;1.80;;;22.60;99.90;;;;;;5059678;28;20177;-82
2022/08/07 12:48:54;;;;;;;2.33;1.80;;;22.40;99.90;;;;;;5059493;28;20675;-81
2022/08/07 12:51:25;;;;;;;2.30;1.93;;;22.30;99.90;;;;;;5044563;28;20264;-82
2022/08/07 12:54:05;;;;;;;2.10;1.90;;;22.30;99.90;;;;;;5060145;28;20203;-81
2022/08/07 12:56:39;;;;;;;3.80;2.00;;;22.30;99.90;;;;;;5060134;28;20173;-81
2022/08/07 12:59:07;;;;;;;5.10;2.30;;;22.20;99.90;;;;;;5061646;28;20257;-81
2022/08/07 13:02:07;;;;;;;3.87;2.10;;;22.30;99.90;;;;;;5059498;28;20634;-81
2022/08/07 13:05:10;;;;;;;2.03;1.83;;;22.20;99.90;;;;;;5061834;28;20165;-80
2022/08/07 13:07:50;;;;;;;2.93;2.00;;;22.20;99.90;;;;;;5061429;28;20197;-81
2022/08/07 13:10:33;;;;;;;2.10;1.90;;;22.30;99.90;;;;;;5060102;28;20232;-81
2022/08/07 13:13:27;;;;;;;2.10;1.90;;;22.20;99.90;;;;;;5061497;28;20169;-81
2022/08/07 13:16:09;;;;;;;3.70;2.30;;;22.00;99.90;;;;;;5059873;28;20180;-81
2022/08/07 13:19:05;;;;;;;2.27;2.07;;;21.80;99.90;;;;;;5061519;28;20205;-81
2022/08/07 13:21:36;;;;;;;2.50;1.70;;;21.80;99.90;;;;;;5059546;28;20216;-80
2022/08/07 13:24:17;;;;;;;2.20;2.00;;;21.80;99.90;;;;;;5060855;28;20200;-80
2022/08/07 13:26:54;;;;;;;3.60;1.97;;;21.90;99.90;;;;;;5059149;28;20189;-80
2022/08/07 13:29:32;;;;;;;3.77;1.70;;;21.90;99.90;;;;;;5058165;28;20212;-81
2022/08/07 13:32:14;;;;;;;3.43;2.10;;;21.90;99.90;;;;;;5064104;28;20667;-80
2022/08/07 13:34:50;;;;;;;2.13;2.03;;;22.00;99.90;;;;;;5065176;28;20185;-81
2022/08/07 13:37:37;;;;;;;2.57;1.80;;;21.90;99.90;;;;;;5064953;28;20174;-81
2022/08/07 13:40:28;;;;;;;4.23;2.00;;;21.90;99.90;;;;;;5066140;28;20169;-81
2022/08/07 13:43:01;;;;;;;3.10;2.10;;;21.80;99.90;;;;;;5065041;28;20178;-81
2022/08/07 13:45:29;;;;;;;4.87;1.93;;;21.60;99.90;;;;;;5065231;28;20185;-81
2022/08/07 13:47:56;;;;;;;2.73;2.30;;;21.60;99.90;;;;;;5066291;28;20224;-82
2022/08/07 13:50:24;;;;;;;2.43;2.23;;;21.50;99.90;;;;;;5066599;28;20201;-81
2022/08/07 13:52:53;;;;;;;3.23;2.07;;;21.40;99.90;;;;;;5065939;28;20177;-81
2022/08/07 13:55:21;;;;;;;2.10;1.90;;;21.40;99.90;;;;;;5066261;28;20180;-81
2022/08/07 13:57:51;;;;;;;4.27;2.53;;;21.30;99.90;;;;;;5066514;28;20249;-82
2022/08/07 14:00:18;;;;;;;2.20;2.00;;;21.20;99.90;;;;;;5064289;28;20185;-81
2022/08/07 14:02:47;;;;;;;3.77;2.10;;;21.20;99.90;;;;;;5065567;28;20181;-81
2022/08/07 14:05:18;;;;;;;2.50;2.30;;;21.10;99.90;;;;;;5071679;28;20260;-79
2022/08/07 14:07:46;;;;;;;3.10;2.20;;;21.10;99.90;;;;;;5078634;28;20189;-80
2022/08/07 14:10:13;;;;;;;2.10;1.90;;;21.10;99.90;;;;;;5077692;28;20209;-80
2022/08/07 14:12:57;;;;;;;3.10;2.30;;;21.30;99.90;;;;;;5078686;28;20158;-79
2022/08/07 14:15:38;;;;;;;5.03;2.07;;;21.30;99.90;;;;;;5079331;28;20193;-79
2022/08/07 14:18:26;;;;;;;2.73;2.10;;;21.40;99.90;;;;;;5078789;28;20189;-81
2022/08/07 14:21:03;;;;;;;2.20;2.00;;;21.40;99.90;;;;;;5078689;28;20178;-81
2022/08/07 14:23:31;;;;;;;2.73;2.33;;;21.50;99.90;;;;;;5062434;28;20248;-81
2022/08/07 14:26:06;;;;;;;2.00;1.90;;;21.50;99.90;;;;;;5061990;28;20173;-81
2022/08/07 14:28:36;;;;;;;3.13;2.00;;;21.50;99.90;;;;;;5063050;28;20584;-82
2022/08/07 14:31:03;;;;;;;4.23;2.10;;;21.50;99.90;;;;;;5061932;28;20177;-81
2022/08/07 14:33:31;;;;;;;2.07;1.90;;;21.40;99.90;;;;;;5060864;28;20547;-81
2022/08/07 14:35:59;;;;;;;3.40;2.20;;;21.40;99.90;;;;;;5062083;28;20188;-82
2022/08/07 14:38:28;;;;;;;3.23;2.13;;;21.20;99.90;;;;;;5062062;28;20194;-81
2022/08/07 14:40:57;;;;;;;6.27;1.93;;;21.20;99.90;;;;;;5061906;28;20583;-82
2022/08/07 14:43:25;;;;;;;3.87;2.37;;;21.20;99.90;;;;;;5072691;28;20177;-81
2022/08/07 14:45:55;;;;;;;2.07;1.93;;;21.20;99.90;;;;;;5073659;28;20177;-82
2022/08/07 14:48:31;;;;;;;3.13;2.13;;;21.20;99.90;;;;;;5063212;28;20219;-82
2022/08/07 14:51:06;;;;;;;2.77;2.33;;;21.20;99.90;;;;;;5061954;28;20596;-82
2022/08/07 14:53:37;;;;;;;3.10;2.03;;;21.20;99.90;;;;;;5061882;28;20307;-82
2022/08/07 14:56:06;;;;;;;3.53;1.90;;;21.10;99.90;;;;;;5061773;28;20166;-81
2022/08/07 14:58:39;;;;;;;3.70;2.27;;;21.10;99.90;;;;;;5061767;28;20198;-81
2022/08/07 15:01:07;;;;;;;3.50;2.20;;;21.20;99.90;;;;;;5062874;28;20174;-83
2022/08/07 15:03:34;;;;;;;2.20;2.00;;;21.20;99.90;;;;;;5065443;28;20239;-81
2022/08/07 15:06:00;;;;;;;3.97;2.00;;;21.20;99.90;;;;;;5062762;28;20177;-81
2022/08/07 15:08:34;;;;;;;2.30;2.00;;;21.20;99.90;;;;;;5064286;28;20289;-81
2022/08/07 15:11:09;;;;;;;2.67;2.40;;;21.20;99.90;;;;;;5067099;28;20165;-82
2022/08/07 15:13:47;;;;;;;2.57;2.37;;;21.30;99.90;;;;;;5063025;28;20180;-81
2022/08/07 15:16:14;;;;;;;2.63;2.10;;;21.20;99.90;;;;;;5064431;28;20238;-81
2022/08/07 15:18:49;;;;;;;2.27;2.07;;;21.20;99.90;;;;;;5063632;28;20200;-81
2022/08/07 15:21:23;;;;;;;2.20;2.00;;;21.10;99.90;;;;;;5063454;28;20185;-81
2022/08/07 15:23:54;;;;;;;2.63;2.30;;;21.10;99.90;;;;;;5062349;28;20169;-83
2022/08/07 15:26:26;;;;;;;2.30;2.10;;;21.10;99.90;;;;;;5062807;28;20174;-84
2022/08/07 15:28:57;;;;;;;3.03;2.20;;;21.00;99.90;;;;;;5062114;28;20209;-83
2022/08/07 15:31:24;;;;;;;3.80;2.23;;;21.00;99.90;;;;;;5062416;28;20180;-81
2022/08/07 15:33:58;;;;;;;3.93;2.00;;;21.00;99.90;;;;;;5063584;28;20181;-81
2022/08/07 15:36:25;;;;;;;2.43;1.87;;;21.00;99.90;;;;;;5062594;28;20200;-81
2022/08/07 15:38:52;;;;;;;3.20;2.23;;;21.00;99.90;;;;;;5062970;28;20725;-81
2022/08/07 15:41:23;;;;;;;3.10;2.17;;;21.00;99.90;;;;;;5061511;28;20201;-81
2022/08/07 15:44:05;;;;;;;3.00;2.20;;;20.90;99.90;;;;;;5066355;28;20193;-80
2022/08/07 15:46:33;;;;;;;2.33;2.13;;;20.90;99.90;;;;;;5069114;28;20183;-80
2022/08/07 15:49:02;;;;;;;2.80;2.27;;;20.70;99.90;;;;;;5059638;28;20270;-81
2022/08/07 15:51:29;;;;;;;2.43;2.20;;;20.70;99.90;;;;;;5059302;28;20646;-80
2022/08/07 15:53:58;;;;;;;2.70;2.50;;;20.70;99.90;;;;;;5056977;28;20180;-80
2022/08/07 15:56:32;;;;;;;5.10;2.50;;;20.70;99.90;;;;;;5057698;28;20181;-80
2022/08/07 15:59:04;;;;;;;3.73;2.20;;;20.70;99.90;;;;;;5059171;28;20336;-81
2022/08/07 16:01:38;;;;;;;2.33;2.13;;;20.70;99.90;;;;;;5059220;28;20242;-81
2022/08/07 16:04:07;;;;;;;2.50;2.30;;;20.80;99.90;;;;;;5061093;28;20218;-81
2022/08/07 16:06:42;;;;;;;3.57;2.60;;;20.70;99.90;;;;;;5059022;28;20185;-80
2022/08/07 16:09:14;;;;;;;7.53;3.00;;;20.70;99.90;;;;;;5059861;28;20322;-81
2022/08/07 16:12:08;;;;;;;3.17;2.73;;;20.60;99.90;;;;;;5059758;28;20179;-81
2022/08/07 16:14:52;;;;;;;2.63;2.30;;;20.60;99.90;;;;;;5059196;28;20175;-80
2022/08/07 16:17:33;;;;;;;2.50;2.30;;;20.50;99.90;;;;;;5058914;28;20237;-80
2022/08/07 16:20:17;;;;;;;3.03;2.40;;;20.50;99.90;;;;;;5060616;28;20624;-80
2022/08/07 16:22:52;;;;;;;3.10;2.50;;;20.50;99.90;;;;;;5059876;28;20276;-81
2022/08/07 16:25:33;;;;;;;3.03;2.60;;;20.50;99.90;;;;;;5061225;28;20240;-81
2022/08/07 16:28:18;;;;;;;2.83;2.53;;;20.50;99.90;;;;;;5058937;28;20220;-80
2022/08/07 16:30:55;;;;;;;4.37;2.50;;;20.50;99.90;;;;;;5061376;28;20196;-81
2022/08/07 16:33:26;;;;;;;3.23;2.93;;;20.50;99.90;;;;;;5060006;28;20178;-81
2022/08/07 16:36:14;;;;;;;4.20;2.40;;;20.50;99.90;;;;;;5060525;28;20183;-82
2022/08/07 16:38:52;;;;;;;4.67;3.00;;;20.60;99.90;;;;;;5060181;28;20199;-82
2022/08/07 16:41:47;;;;;;;3.10;2.60;;;20.50;99.90;;;;;;5062806;28;20176;-82
2022/08/07 16:44:50;;;;;;;2.13;2.00;;;20.60;99.90;;;;;;5060901;28;20550;-82
2022/08/07 16:47:47;;;;;;;3.13;2.83;;;20.80;99.90;;;;;;5059881;28;20171;-82
2022/08/07 16:50:29;;;;;;;2.67;2.40;;;20.80;99.90;;;;;;5061125;28;20197;-82
2022/08/07 16:53:13;;;;;;;2.40;2.20;;;20.90;99.90;;;;;;5066234;28;20215;-83
2022/08/07 16:55:49;;;;;;;2.93;2.60;;;21.00;99.90;;;;;;5071520;28;20175;-80
2022/08/07 16:58:33;;;;;;;4.90;2.73;;;21.00;99.90;;;;;;5062789;28;20236;-82
2022/08/07 17:01:09;;;;;;;2.97;2.37;;;21.00;99.90;;;;;;5059093;28;20183;-81
2022/08/07 17:03:53;;;;;;;4.80;2.17;;;21.00;99.90;;;;;;5059563;28;20176;-81
2022/08/07 17:06:36;;;;;;;3.77;2.23;;;21.00;99.90;;;;;;5058335;28;20175;-82
2022/08/07 17:09:26;;;;;;;2.83;2.00;;;21.00;99.90;;;;;;5060089;28;20214;-82
2022/08/07 17:12:01;;;;;;;2.43;2.07;;;21.00;99.90;;;;;;5060245;28;20548;-81
2022/08/07 17:15:09;;;;;;;2.60;1.70;;;21.00;99.90;;;;;;5060448;28;20156;-81
2022/08/07 17:17:43;;;;;;;2.20;2.00;;;20.90;99.90;;;;;;5059678;28;20293;-82
2022/08/07 17:20:29;;;;;;;4.63;2.13;;;20.80;99.90;;;;;;5060459;28;20180;-82
2022/08/07 17:23:13;;;;;;;3.97;2.10;;;20.80;99.90;;;;;;5061399;28;20633;-81
2022/08/07 17:26:04;;;;;;;5.20;2.30;;;20.70;99.90;;;;;;5060281;28;20179;-81
2022/08/07 17:28:31;;;;;;;1.97;1.73;;;;;;;;;;5058377;28;20204;-81
2022/08/07 17:31:09;;;;;;;3.83;1.63;;;20.60;99.90;;;;;;5059223;28;20186;-81
2022/08/07 17:33:36;;;;;;;2.20;1.70;;;20.50;99.90;;;;;;5058817;28;20513;-82
2022/08/07 17:36:16;;;;;;;3.97;1.97;;;20.50;99.90;;;;;;5059805;28;20177;-81
2022/08/07 17:38:53;;;;;;;2.07;1.90;;;20.50;99.90;;;;;;5059855;28;20234;-81
2022/08/07 17:41:56;;;;;;;4.23;1.80;;;20.40;99.90;;;;;;5058983;28;20182;-82
2022/08/07 17:44:34;;;;;;;1.70;1.50;;;20.40;99.90;;;;;;5058631;28;20189;-82
2022/08/07 17:47:30;;;;;;;2.93;1.70;;;20.40;99.90;;;;;;5058109;28;20181;-83
2022/08/07 17:49:59;;;;;;;2.37;1.77;;;20.40;99.90;;;;;;5060497;28;20220;-81
2022/08/07 17:52:37;;;;;;;1.60;1.50;;;20.30;99.90;;;;;;5059598;28;20182;-82
2022/08/07 17:55:16;;;;;;;1.73;1.60;;;20.20;99.90;;;;;;5062232;28;20175;-81
2022/08/07 17:57:49;;;;;;;2.47;1.70;;;20.10;99.90;;;;;;5062879;28;20221;-81
2022/08/07 18:00:20;;;;;;;2.83;1.73;;;20.20;99.90;;;;;;5064142;28;20697;-80
2022/08/07 18:02:52;;;;;;;2.10;1.60;;;20.00;99.90;;;;;;5059961;28;20165;-80
2022/08/07 18:05:46;;;;;;;3.30;1.97;;;19.90;99.90;;;;;;5059546;28;20191;-81
2022/08/07 18:08:14;;;;;;;3.00;2.00;;;19.80;99.90;;;;;;5061457;28;20202;-81
2022/08/07 18:11:12;;;;;;;3.67;1.77;;;19.70;99.90;;;;;;5061622;28;20571;-80
2022/08/07 18:14:07;;;;;;;3.70;1.80;;;19.60;99.90;;;;;;5062520;28;20628;-80
2022/08/07 18:16:43;;;;;;;2.63;1.90;;;19.60;99.90;;;;;;5062432;28;20575;-81
2022/08/07 18:19:22;;;;;;;1.90;1.80;;;19.50;99.90;;;;;;5065205;28;20206;-81
2022/08/07 18:22:08;;;;;;;3.67;1.93;;;19.40;99.90;;;;;;5064229;28;20632;-81
2022/08/07 18:24:52;;;;;;;2.70;1.87;;;19.30;99.90;;;;;;5062858;28;20181;-81
2022/08/07 18:27:32;;;;;;;6.80;1.80;;;19.30;99.90;;;;;;5064659;28;20188;-81
2022/08/07 18:30:05;;;;;;;2.43;2.07;;;19.30;99.90;;;;;;5064599;28;20203;-81
2022/08/07 18:32:42;;;;;;;2.37;2.13;;;19.30;99.90;;;;;;5063870;28;20184;-82
2022/08/07 18:35:42;;;;;;;5.97;2.00;;;19.20;99.90;;;;;;5064598;28;20184;-82
2022/08/07 18:38:36;;;;;;;3.37;2.07;;;19.20;99.90;;;;;;5064804;28;20209;-81
2022/08/07 18:41:14;;;;;;;3.40;2.20;;;19.10;99.90;;;;;;5063790;28;20174;-82
2022/08/07 18:44:04;;;;;;;2.93;1.90;;;19.10;99.90;;;;;;5065504;28;20174;-82
2022/08/07 18:47:02;;;;;;;2.97;2.00;;;19.10;99.90;;;;;;5065878;28;20173;-82
2022/08/07 18:49:30;;;;;;;6.67;2.27;;;19.00;99.90;;;;;;5065615;28;20259;-82
2022/08/07 18:52:14;;;;;;;3.20;2.50;;;18.90;99.90;;;;;;5064540;28;20632;-82
2022/08/07 18:55:17;;;;;;;2.83;2.13;;;18.80;99.90;;;;;;5064901;28;20195;-82
2022/08/07 18:58:01;;;;;;;2.90;2.40;;;18.80;99.90;;;;;;5064211;28;20618;-82
2022/08/07 19:00:45;;;;;;;3.87;2.40;;;18.70;99.90;;;;;;5064543;28;20583;-81